createdAt,value
2023-04-14T00:00:49.080Z,20.77
2023-04-14T00:03:18.063Z,20.72
2023-04-14T00:05:46.361Z,20.80
2023-04-14T00:08:14.456Z,20.62
2023-04-14T00:10:42.504Z,20.58
2023-04-14T00:13:12.036Z,20.88
2023-04-14T00:15:41.482Z,20.98
2023-04-14T00:18:09.461Z,20.65
2023-04-14T00:20:37.430Z,21.03
2023-04-14T00:23:05.435Z,21.02
2023-04-14T00:25:33.401Z,20.70
2023-04-14T00:28:01.386Z,20.74
2023-04-14T00:30:31.054Z,20.96
2023-04-14T00:32:59.079Z,21.14
2023-04-14T00:35:27.217Z,21.07
2023-04-14T00:37:56.640Z,21.01
2023-04-14T00:40:24.738Z,20.73
2023-04-14T00:42:52.808Z,21.27
2023-04-14T00:45:21.076Z,20.90
2023-04-14T00:47:51.092Z,20.78
2023-04-14T00:50:20.651Z,20.90
2023-04-14T00:52:50.602Z,21.14
2023-04-14T00:55:20.552Z,21.05
2023-04-14T00:57:49.076Z,21.11
2023-04-14T01:00:18.018Z,20.77
2023-04-14T01:02:46.575Z,20.82
2023-04-14T01:05:16.373Z,21.07
2023-04-14T01:07:45.200Z,20.59
2023-04-14T01:10:13.566Z,20.54
2023-04-14T01:12:59.729Z,20.88
2023-04-14T01:15:35.572Z,21.04
2023-04-14T01:18:11.570Z,20.75
2023-04-14T01:20:44.437Z,20.94
2023-04-14T01:23:18.769Z,20.76
2023-04-14T01:26:14.969Z,20.41
2023-04-14T01:29:29.696Z,20.73
2023-04-14T01:32:03.311Z,20.77
2023-04-14T01:34:37.681Z,20.48
2023-04-14T01:37:09.664Z,20.86
2023-04-14T01:39:42.569Z,20.86
2023-04-14T01:42:16.110Z,20.51
2023-04-14T01:44:45.313Z,20.80
2023-04-14T01:47:18.768Z,20.77
2023-04-14T01:49:48.800Z,20.73
2023-04-14T01:52:18.259Z,20.66
2023-04-14T01:54:49.833Z,20.68
2023-04-14T01:57:22.772Z,20.47
2023-04-14T01:59:55.669Z,20.84
2023-04-14T02:02:27.155Z,20.80
2023-04-14T02:04:57.519Z,20.45
2023-04-14T02:07:27.084Z,20.66
2023-04-14T02:09:57.916Z,20.88
2023-04-14T02:12:27.886Z,20.59
2023-04-14T02:14:56.497Z,20.77
2023-04-14T02:17:26.394Z,20.84
2023-04-14T02:19:55.127Z,20.72
2023-04-14T02:22:23.273Z,20.68
2023-04-14T02:24:51.406Z,20.61
2023-04-14T02:27:26.590Z,20.88
2023-04-14T02:29:57.441Z,20.40
2023-04-14T02:32:31.187Z,20.39
2023-04-14T02:35:06.075Z,20.64
2023-04-14T02:37:40.443Z,20.80
2023-04-14T02:40:14.016Z,20.42
2023-04-14T02:42:44.625Z,20.53
2023-04-14T02:45:17.448Z,20.83
2023-04-14T02:47:51.495Z,20.49
2023-04-14T02:50:20.592Z,20.91
2023-04-14T02:53:01.675Z,20.91
2023-04-14T02:55:36.699Z,20.52
2023-04-14T02:58:05.373Z,20.60
2023-04-14T03:00:39.334Z,20.72
2023-04-14T03:03:09.446Z,20.58
2023-04-14T03:05:40.079Z,20.66
2023-04-14T03:08:12.107Z,20.51
2023-04-14T03:10:46.142Z,20.51
2023-04-14T03:13:16.700Z,20.84
2023-04-14T03:15:46.869Z,20.59
2023-04-14T03:18:17.759Z,20.54
2023-04-14T03:20:47.340Z,20.60
2023-04-14T03:23:19.560Z,20.71
2023-04-14T03:25:57.270Z,20.69
2023-04-14T03:28:31.068Z,20.64
2023-04-14T03:31:03.801Z,20.71
2023-04-14T03:33:56.492Z,20.69
2023-04-14T03:36:32.222Z,20.65
2023-04-14T03:39:03.394Z,20.55
2023-04-14T03:41:37.828Z,20.49
2023-04-14T03:44:15.559Z,20.79
2023-04-14T03:46:46.782Z,20.70
2023-04-14T03:49:20.150Z,20.67
2023-04-14T03:51:52.455Z,20.60
2023-04-14T03:54:24.112Z,20.60
2023-04-14T03:56:56.828Z,20.79
2023-04-14T03:59:28.621Z,20.62
2023-04-14T04:01:58.222Z,20.52
2023-04-14T04:04:28.327Z,20.71
2023-04-14T04:06:58.779Z,20.65
2023-04-14T04:09:29.846Z,20.58
2023-04-14T04:11:59.970Z,20.35
2023-04-14T04:14:31.164Z,20.64
2023-04-14T04:17:03.344Z,20.64
2023-04-14T04:19:35.071Z,20.51
2023-04-14T04:22:04.783Z,20.44
2023-04-14T04:24:40.272Z,20.69
2023-04-14T04:27:26.577Z,20.79
2023-04-14T04:29:58.609Z,20.29
2023-04-14T04:32:27.337Z,20.29
2023-04-14T04:34:58.631Z,20.28
2023-04-14T04:37:29.030Z,20.39
2023-04-14T04:39:59.009Z,20.34
2023-04-14T04:42:28.073Z,20.78
2023-04-14T04:44:57.241Z,20.40
2023-04-14T04:47:25.646Z,20.65
2023-04-14T04:49:53.575Z,20.69
2023-04-14T04:52:23.006Z,20.86
2023-04-14T04:54:52.583Z,20.70
2023-04-14T04:57:21.192Z,20.85
2023-04-14T04:59:49.177Z,20.79
2023-04-14T05:02:17.559Z,20.99
2023-04-14T05:04:45.562Z,21.00
2023-04-14T05:07:13.570Z,20.86
2023-04-14T05:09:43.040Z,20.89
2023-04-14T05:12:11.122Z,20.64
2023-04-14T05:14:39.290Z,20.92
2023-04-14T05:17:07.352Z,20.56
2023-04-14T05:19:35.653Z,20.92
2023-04-14T05:22:03.609Z,20.98
2023-04-14T05:24:31.494Z,20.99
2023-04-14T05:27:13.897Z,21.04
2023-04-14T05:29:43.030Z,21.12
2023-04-14T05:32:12.912Z,20.80
2023-04-14T05:34:40.996Z,20.95
2023-04-14T05:37:09.075Z,20.87
2023-04-14T05:39:37.197Z,20.82
2023-04-14T05:42:06.714Z,20.91
2023-04-14T05:44:34.763Z,20.88
2023-04-14T05:47:02.805Z,20.80
2023-04-14T05:49:31.148Z,20.87
2023-04-14T05:51:59.221Z,20.72
2023-04-14T05:54:27.150Z,20.64
2023-04-14T05:56:56.421Z,20.83
2023-04-14T05:59:25.962Z,20.79
2023-04-14T06:01:54.088Z,20.92
2023-04-14T06:04:22.380Z,21.14
2023-04-14T06:06:50.561Z,21.05
2023-04-14T06:09:18.870Z,21.02
2023-04-14T06:11:46.891Z,21.10
2023-04-14T06:14:14.957Z,20.82
2023-04-14T06:16:44.328Z,20.95
2023-04-14T06:19:12.272Z,20.82
2023-04-14T06:21:40.326Z,20.74
2023-04-14T06:24:08.755Z,21.28
2023-04-14T06:26:36.873Z,21.09
2023-04-14T06:29:07.435Z,21.15
2023-04-14T06:31:35.728Z,21.20
2023-04-14T06:34:05.199Z,21.34
2023-04-14T06:36:33.315Z,21.04
2023-04-14T06:39:02.107Z,20.98
2023-04-14T06:41:30.421Z,21.14
2023-04-14T06:43:58.531Z,21.19
2023-04-14T06:46:26.675Z,20.83
2023-04-14T06:48:54.727Z,20.91
2023-04-14T06:51:24.097Z,21.65
2023-04-14T06:53:52.390Z,21.72
2023-04-14T06:56:20.732Z,21.74
2023-04-14T06:58:48.778Z,22.27
2023-04-14T07:01:16.980Z,22.77
2023-04-14T07:03:45.532Z,22.90
2023-04-14T07:06:17.278Z,23.69
2023-04-14T07:08:46.873Z,25.69
2023-04-14T07:11:14.965Z,27.14
2023-04-14T07:13:43.053Z,27.51
2023-04-14T07:16:11.352Z,28.16
2023-04-14T07:18:39.407Z,28.60
2023-04-14T07:21:07.515Z,28.46
2023-04-14T07:23:35.483Z,28.15
2023-04-14T07:26:04.926Z,28.02
2023-04-14T07:28:33.477Z,28.20
2023-04-14T07:31:08.936Z,27.89
2023-04-14T07:33:37.134Z,27.77
2023-04-14T07:36:07.289Z,28.00
2023-04-14T07:38:35.560Z,27.55
2023-04-14T07:41:07.001Z,27.65
2023-04-14T07:43:36.018Z,27.12
2023-04-14T07:46:05.656Z,27.46
2023-04-14T07:48:34.798Z,27.03
2023-04-14T07:51:03.155Z,27.15
2023-04-14T07:53:31.697Z,26.49
2023-04-14T07:55:59.924Z,27.07
2023-04-14T07:58:29.888Z,26.80
2023-04-14T08:00:58.359Z,26.73
2023-04-14T08:03:26.671Z,26.55
2023-04-14T08:05:55.027Z,25.93
2023-04-14T08:08:23.174Z,26.17
2023-04-14T08:10:51.154Z,25.95
2023-04-14T08:13:19.220Z,26.09
2023-04-14T08:15:48.791Z,26.28
2023-04-14T08:18:16.784Z,25.91
2023-04-14T08:20:44.820Z,25.68
2023-04-14T08:23:12.881Z,25.92
2023-04-14T08:25:40.850Z,25.80
2023-04-14T08:28:08.896Z,25.86
2023-04-14T08:30:37.133Z,25.68
2023-04-14T08:33:07.046Z,25.37
2023-04-14T08:35:41.988Z,25.69
2023-04-14T08:38:11.299Z,25.90
2023-04-14T08:40:40.935Z,25.52
2023-04-14T08:43:09.406Z,25.56
2023-04-14T08:45:37.738Z,25.53
2023-04-14T08:48:07.281Z,25.68
2023-04-14T08:50:38.820Z,25.80
2023-04-14T08:53:10.036Z,25.59
2023-04-14T08:55:40.428Z,25.79
2023-04-14T08:58:10.548Z,25.79
2023-04-14T09:00:40.148Z,25.45
2023-04-14T09:03:10.066Z,25.57
2023-04-14T09:05:38.673Z,25.37
2023-04-14T09:08:06.791Z,25.41
2023-04-14T09:10:36.779Z,25.70
2023-04-14T09:13:06.667Z,25.71
2023-04-14T09:15:34.769Z,25.49
2023-04-14T09:18:03.378Z,25.59
2023-04-14T09:20:37.689Z,25.58
2023-04-14T09:23:10.020Z,25.53
2023-04-14T09:25:39.578Z,25.46
2023-04-14T09:28:07.969Z,25.52
2023-04-14T09:30:36.338Z,25.38
2023-04-14T09:33:06.409Z,25.28
2023-04-14T09:35:47.380Z,25.16
2023-04-14T09:38:16.740Z,25.20
2023-04-14T09:40:45.389Z,25.20
2023-04-14T09:43:26.974Z,25.13
2023-04-14T09:45:56.286Z,25.09
2023-04-14T09:48:24.448Z,25.13
2023-04-14T09:51:06.646Z,24.93
2023-04-14T09:53:35.931Z,25.16
2023-04-14T09:56:06.121Z,25.10
2023-04-14T09:58:35.248Z,25.14
2023-04-14T10:01:04.627Z,25.11
2023-04-14T10:03:40.291Z,25.13
2023-04-14T10:06:10.800Z,25.03
2023-04-14T10:08:41.044Z,25.33
2023-04-14T10:11:16.986Z,25.11
2023-04-14T10:13:45.625Z,25.43
2023-04-14T10:16:13.624Z,25.15
2023-04-14T10:18:41.650Z,25.26
2023-04-14T10:21:11.731Z,25.18
2023-04-14T10:23:41.211Z,25.22
2023-04-14T10:26:11.372Z,25.05
2023-04-14T10:28:41.927Z,24.96
2023-04-14T10:31:13.804Z,25.00
2023-04-14T10:33:42.262Z,25.06
2023-04-14T10:36:11.668Z,24.89
2023-04-14T10:38:42.266Z,24.94
2023-04-14T10:41:11.221Z,24.88
2023-04-14T10:43:39.802Z,24.97
2023-04-14T10:46:09.745Z,24.83
2023-04-14T10:48:39.710Z,24.91
2023-04-14T10:51:09.831Z,24.87
2023-04-14T10:53:46.305Z,25.08
2023-04-14T10:56:14.655Z,24.73
2023-04-14T10:58:42.887Z,25.01
2023-04-14T11:01:27.278Z,25.01
2023-04-14T11:03:56.339Z,25.13
2023-04-14T11:06:53.583Z,24.95
2023-04-14T11:09:27.709Z,24.91
2023-04-14T11:11:57.652Z,25.04
2023-04-14T11:14:31.473Z,25.14
2023-04-14T11:17:03.960Z,24.97
2023-04-14T11:19:33.767Z,25.28
2023-04-14T11:22:01.891Z,25.28
2023-04-14T11:24:32.564Z,25.63
2023-04-14T11:27:00.608Z,25.61
2023-04-14T11:29:31.557Z,25.79
2023-04-14T11:32:04.100Z,25.82
2023-04-14T11:34:32.911Z,25.96
2023-04-14T11:37:03.706Z,25.94
2023-04-14T11:39:35.651Z,25.77
2023-04-14T11:42:05.320Z,25.68
2023-04-14T11:44:33.841Z,25.70
2023-04-14T11:47:01.901Z,25.93
2023-04-14T11:49:36.593Z,25.81
2023-04-14T11:52:10.543Z,25.64
2023-04-14T11:54:40.712Z,25.72
2023-04-14T11:57:12.304Z,25.55
2023-04-14T11:59:44.561Z,25.37
2023-04-14T12:02:18.417Z,25.43
2023-04-14T12:04:49.358Z,25.29
2023-04-14T12:07:20.107Z,25.41
2023-04-14T12:09:50.590Z,25.49
2023-04-14T12:12:20.097Z,25.13
2023-04-14T12:14:49.783Z,25.14
2023-04-14T12:17:20.399Z,25.14
2023-04-14T12:19:48.933Z,25.03
2023-04-14T12:22:25.020Z,24.88
2023-04-14T12:24:54.988Z,25.03
2023-04-14T12:27:24.635Z,25.12
2023-04-14T12:29:53.336Z,25.35
2023-04-14T12:32:22.887Z,25.17
2023-04-14T12:34:57.466Z,25.17
2023-04-14T12:37:27.512Z,25.21
2023-04-14T12:39:59.434Z,25.16
2023-04-14T12:42:28.506Z,24.95
2023-04-14T12:44:58.918Z,25.20
2023-04-14T12:47:31.267Z,25.02
2023-04-14T12:50:00.525Z,25.14
2023-04-14T12:52:37.037Z,25.30
2023-04-14T12:55:08.755Z,24.93
2023-04-14T12:57:37.284Z,25.17
2023-04-14T13:00:05.950Z,24.95
2023-04-14T13:02:35.918Z,24.95
2023-04-14T13:05:04.981Z,25.24
2023-04-14T13:07:33.087Z,25.32
2023-04-14T13:10:01.406Z,25.42
2023-04-14T13:12:30.716Z,25.41
2023-04-14T13:14:58.654Z,25.21
2023-04-14T13:17:27.578Z,25.02
2023-04-14T13:19:57.009Z,25.08
2023-04-14T13:22:25.432Z,24.98
2023-04-14T13:24:53.489Z,25.07
2023-04-14T13:27:21.460Z,24.86
2023-04-14T13:29:50.815Z,25.09
2023-04-14T13:32:19.102Z,24.92
2023-04-14T13:34:48.101Z,25.12
2023-04-14T13:37:17.965Z,25.09
2023-04-14T13:39:46.212Z,25.21
2023-04-14T13:42:15.251Z,25.06
2023-04-14T13:44:43.180Z,24.89
2023-04-14T13:47:12.543Z,24.96
2023-04-14T13:49:40.473Z,24.67
2023-04-14T13:52:09.415Z,24.81
2023-04-14T13:54:37.353Z,24.73
2023-04-14T13:57:05.333Z,24.83
2023-04-14T13:59:33.378Z,24.74
2023-04-14T14:02:01.457Z,24.66
2023-04-14T14:04:31.174Z,24.74
2023-04-14T14:06:59.130Z,24.78
2023-04-14T14:09:27.617Z,24.65
2023-04-14T14:11:56.067Z,24.70
2023-04-14T14:14:24.191Z,24.75
2023-04-14T14:16:52.192Z,24.70
2023-04-14T14:19:20.279Z,24.67
2023-04-14T14:21:49.809Z,24.78
2023-04-14T14:24:17.913Z,24.49
2023-04-14T14:26:45.927Z,24.50
2023-04-14T14:29:14.012Z,24.66
2023-04-14T14:31:42.222Z,24.70
2023-04-14T14:34:10.460Z,24.59
2023-04-14T14:36:38.500Z,24.47
2023-04-14T14:39:09.132Z,24.51
2023-04-14T14:41:37.481Z,24.21
2023-04-14T14:46:34.568Z,24.39
2023-04-14T14:49:02.645Z,24.29
2023-04-14T14:51:31.925Z,24.48
2023-04-14T14:54:09.183Z,24.55
2023-04-14T14:56:39.482Z,24.45
2023-04-14T14:59:08.527Z,24.20
2023-04-14T15:01:36.868Z,24.38
2023-04-14T15:04:06.520Z,24.33
2023-04-14T15:06:35.924Z,24.36
2023-04-14T15:09:05.402Z,24.34
2023-04-14T15:11:33.476Z,24.18
2023-04-14T15:14:03.432Z,24.32
2023-04-14T15:16:31.711Z,24.16
2023-04-14T15:18:59.619Z,25.43
2023-04-14T15:21:27.647Z,26.30
2023-04-14T15:23:55.743Z,26.40
2023-04-14T15:26:23.798Z,26.23
2023-04-14T15:28:51.826Z,26.12
2023-04-14T15:31:21.229Z,26.16
2023-04-14T15:33:49.252Z,25.73
2023-04-14T15:36:17.221Z,25.63
2023-04-14T15:38:49.818Z,25.55
2023-04-14T15:41:17.747Z,25.50
2023-04-14T15:43:45.805Z,25.07
2023-04-14T15:46:14.886Z,25.07
2023-04-14T15:48:44.460Z,25.09
2023-04-14T15:51:12.579Z,25.05
2023-04-14T15:53:40.406Z,24.99
2023-04-14T15:56:08.413Z,25.13
2023-04-14T15:58:36.929Z,24.80
2023-04-14T16:01:08.157Z,24.75
2023-04-14T16:03:37.042Z,24.80
2023-04-14T16:06:08.421Z,24.88
2023-04-14T16:08:36.642Z,24.89
2023-04-14T16:11:04.940Z,24.79
2023-04-14T16:13:32.877Z,25.12
2023-04-14T16:16:01.193Z,24.78
2023-04-14T16:18:29.219Z,24.89
2023-04-14T16:20:57.257Z,24.89
2023-04-14T16:23:28.739Z,24.63
2023-04-14T16:25:57.578Z,24.65
2023-04-14T16:28:25.808Z,24.58
2023-04-14T16:30:55.186Z,24.70
2023-04-14T16:33:23.209Z,24.80
2023-04-14T16:35:51.140Z,24.63
2023-04-14T16:38:19.029Z,24.59
2023-04-14T16:40:55.608Z,24.85
2023-04-14T16:43:23.716Z,24.78
2023-04-14T16:45:52.390Z,24.73
2023-04-14T16:48:20.488Z,24.85
2023-04-14T16:50:48.622Z,24.67
2023-04-14T16:53:16.901Z,25.07
2023-04-14T16:55:45.282Z,24.86
2023-04-14T16:58:14.770Z,24.89
2023-04-14T17:00:43.326Z,25.07
2023-04-14T17:03:11.691Z,24.83
2023-04-14T17:05:39.826Z,24.98
2023-04-14T17:08:07.797Z,24.83
2023-04-14T17:10:35.764Z,25.03
2023-04-14T17:13:03.980Z,25.26
2023-04-14T17:15:33.332Z,24.79
2023-04-14T17:18:01.455Z,24.73
2023-04-14T17:20:30.328Z,24.96
2023-04-14T17:23:00.291Z,25.12
2023-04-14T17:25:28.706Z,25.04
2023-04-14T17:27:56.916Z,24.86
2023-04-14T17:30:26.197Z,25.01
2023-04-14T17:32:56.336Z,25.06
2023-04-14T17:35:24.364Z,25.16
2023-04-14T17:37:52.819Z,24.83
2023-04-14T17:40:20.831Z,24.73
2023-04-14T17:42:48.865Z,24.99
2023-04-14T17:45:22.956Z,24.74
2023-04-14T17:47:51.367Z,25.07
2023-04-14T17:50:21.133Z,24.90
2023-04-14T17:52:51.056Z,24.75
2023-04-14T17:55:19.460Z,25.05
2023-04-14T17:57:47.590Z,24.92
2023-04-14T18:00:17.008Z,24.79
2023-04-14T18:02:45.264Z,25.11
2023-04-14T18:05:14.057Z,24.79
2023-04-14T18:07:44.283Z,24.88
2023-04-14T18:10:12.368Z,25.06
2023-04-14T18:12:40.363Z,25.12
2023-04-14T18:15:12.000Z,24.84
2023-04-14T18:17:39.988Z,24.85
2023-04-14T18:20:10.735Z,25.16
2023-04-14T18:22:38.994Z,24.83
2023-04-14T18:25:09.698Z,24.84
2023-04-14T18:30:10.669Z,25.11
2023-04-14T18:32:38.716Z,24.94
2023-04-14T18:35:07.495Z,24.90
2023-04-14T18:37:36.045Z,25.12
2023-04-14T18:40:04.466Z,25.03
2023-04-14T18:42:35.893Z,24.89
2023-04-14T18:45:04.374Z,24.87
2023-04-14T18:47:33.204Z,25.15
2023-04-14T18:50:01.447Z,25.13
2023-04-14T18:52:29.416Z,24.89
2023-04-14T18:54:57.700Z,24.90
2023-04-14T18:57:25.767Z,24.91
2023-04-14T18:59:55.151Z,25.24
2023-04-14T19:02:23.386Z,25.09
2023-04-14T19:04:51.648Z,24.98
2023-04-14T19:07:19.778Z,25.08
2023-04-14T19:09:47.727Z,25.05
2023-04-14T19:12:27.711Z,25.16
2023-04-14T19:14:57.848Z,25.13
2023-04-14T19:17:26.096Z,24.93
2023-04-14T19:19:54.057Z,24.93
2023-04-14T19:22:22.197Z,25.15
2023-04-14T19:24:51.136Z,25.11
2023-04-14T19:27:19.339Z,24.96
2023-04-14T19:29:47.517Z,25.10
2023-04-14T19:32:17.146Z,24.88
2023-04-14T19:34:45.189Z,24.98
2023-04-14T19:37:13.565Z,25.12
2023-04-14T19:39:41.576Z,25.13
2023-04-14T19:42:09.610Z,24.88
2023-04-14T19:44:37.515Z,24.87
2023-04-14T19:47:05.990Z,25.03
2023-04-14T19:49:35.562Z,25.14
2023-04-14T19:52:04.721Z,25.11
2023-04-14T19:54:32.775Z,25.06
2023-04-14T19:57:00.806Z,25.07
2023-04-14T19:59:29.444Z,25.08
2023-04-14T20:01:57.534Z,25.08
2023-04-14T20:04:25.764Z,24.91
2023-04-14T20:06:55.938Z,24.79
2023-04-14T20:09:24.470Z,25.07
2023-04-14T20:11:52.553Z,25.01
2023-04-14T20:14:20.477Z,24.97
2023-04-14T20:16:48.533Z,24.99
2023-04-14T20:19:18.799Z,24.91
2023-04-14T20:21:46.731Z,25.00
2023-04-14T20:24:16.071Z,24.79
2023-04-14T20:26:44.958Z,24.89
2023-04-14T20:29:13.159Z,24.87
2023-04-14T20:31:42.691Z,24.93
2023-04-14T20:34:12.100Z,24.82
2023-04-14T20:36:40.194Z,25.07
2023-04-14T20:39:08.445Z,24.81
2023-04-14T20:41:38.113Z,24.96
2023-04-14T20:44:06.251Z,24.78
2023-04-14T20:46:34.491Z,24.75
2023-04-14T20:49:02.663Z,24.83
2023-04-14T20:51:32.240Z,24.89
2023-04-14T20:54:01.835Z,24.98
2023-04-14T20:56:30.813Z,24.75
2023-04-14T20:59:00.613Z,24.89
2023-04-14T21:01:28.816Z,24.77
2023-04-14T21:03:57.241Z,24.71
2023-04-14T21:06:25.848Z,25.08
2023-04-14T21:08:53.821Z,24.91
2023-04-14T21:11:21.876Z,24.99
2023-04-14T21:15:45.553Z,25.00
2023-04-14T21:16:39.434Z,24.90
2023-04-14T21:19:07.462Z,24.80
2023-04-14T21:21:35.515Z,25.05
2023-04-14T21:24:03.524Z,24.89
2023-04-14T21:26:31.712Z,24.86
2023-04-14T21:28:59.864Z,25.04
2023-04-14T21:31:28.426Z,24.92
2023-04-14T21:33:57.985Z,24.96
2023-04-14T21:36:25.959Z,24.96
2023-04-14T21:38:53.880Z,25.00
2023-04-14T21:41:22.029Z,24.82
2023-04-14T21:43:50.014Z,24.86
2023-04-14T21:46:18.089Z,24.88
2023-04-14T21:48:46.210Z,25.11
2023-04-14T21:51:15.852Z,25.00
2023-04-14T21:53:43.840Z,25.09
2023-04-14T21:56:12.909Z,25.35
2023-04-14T21:58:41.010Z,25.55
2023-04-14T22:01:10.350Z,25.64
2023-04-14T22:03:41.219Z,25.66
2023-04-14T22:06:11.258Z,25.75
2023-04-14T22:08:41.798Z,25.59
2023-04-14T22:11:09.888Z,25.71
2023-04-14T22:13:38.004Z,25.81
2023-04-14T22:16:06.612Z,25.57
2023-04-14T22:18:35.804Z,25.65
2023-04-14T22:21:04.840Z,25.58
2023-04-14T22:23:33.041Z,25.73
2023-04-14T22:26:03.560Z,25.86
2023-04-14T22:28:31.758Z,25.72
2023-04-14T22:30:59.702Z,25.56
2023-04-14T22:33:27.693Z,25.83
2023-04-14T22:35:55.622Z,25.88
2023-04-14T22:38:23.606Z,25.82
2023-04-14T22:40:52.674Z,25.69
2023-04-14T22:43:22.306Z,25.65
2023-04-14T22:45:51.010Z,25.41
2023-04-14T22:48:18.971Z,25.68
2023-04-14T22:50:47.104Z,25.57
2023-04-14T22:53:15.215Z,25.72
2023-04-14T22:55:44.066Z,25.48
2023-04-14T22:58:16.742Z,25.55
2023-04-14T23:00:46.953Z,25.75
2023-04-14T23:03:15.421Z,25.54
2023-04-14T23:05:44.641Z,25.71
2023-04-14T23:08:12.763Z,25.58
2023-04-14T23:10:40.676Z,25.64
2023-04-14T23:13:08.673Z,25.53
2023-04-14T23:15:36.847Z,25.58
2023-04-14T23:18:06.499Z,25.76
2023-04-14T23:20:34.578Z,25.84
2023-04-14T23:23:02.692Z,25.90
2023-04-14T23:25:30.908Z,25.75
2023-04-14T23:27:58.927Z,25.92
2023-04-14T23:30:27.520Z,25.84
2023-04-14T23:32:55.456Z,25.96
2023-04-14T23:35:24.934Z,25.97
2023-04-14T23:37:53.148Z,25.87
2023-04-14T23:40:21.378Z,25.89
2023-04-14T23:42:49.377Z,26.03
2023-04-14T23:45:17.355Z,25.93
2023-04-14T23:47:45.408Z,25.82
2023-04-14T23:50:13.357Z,25.84
2023-04-14T23:52:42.800Z,25.94
2023-04-14T23:55:10.973Z,26.04
2023-04-14T23:57:39.056Z,26.04
